Time;durP1;ratioP1;P1;durP2;ratioP2;P2;SDS_P1;SDS_P2;PMS_P1;PMS_P2;Temp;Humidity;BMP_temperature;BMP_pressure;BME280_temperature;BME280_humidity;BME280_pressure;Samples;Min_cycle;Max_cycle;Signal;HPM_P1;HPM_P2
2022/04/09 00:01:28;;;;;;;2.23;1.30;;;11.80;53.10;;;;;;5062560;28;46295;-63
2022/04/09 00:03:54;;;;;;;3.43;1.30;;;11.60;53.10;;;;;;5064207;28;46314;-64
2022/04/09 00:06:20;;;;;;;2.37;1.07;;;11.50;53.90;;;;;;5044399;28;46491;-62
2022/04/09 00:08:45;;;;;;;2.90;1.10;;;11.40;55.50;;;;;;5061585;28;47024;-63
2022/04/09 00:11:11;;;;;;;3.70;1.10;;;11.30;56.60;;;;;;5061958;28;46414;-63
2022/04/09 00:13:37;;;;;;;3.83;1.40;;;11.10;59.10;;;;;;5062216;28;46386;-65
2022/04/09 00:16:03;;;;;;;4.87;1.20;;;11.00;60.10;;;;;;5061595;28;46213;-65
2022/04/09 00:18:28;;;;;;;5.53;1.10;;;10.80;60.40;;;;;;5061478;28;46410;-64
2022/04/09 00:20:55;;;;;;;4.60;1.63;;;10.80;61.20;;;;;;5062338;28;46320;-63
2022/04/09 00:23:22;;;;;;;4.13;1.40;;;10.70;61.50;;;;;;5061021;28;46306;-62
2022/04/09 00:25:47;;;;;;;2.73;0.90;;;10.60;63.00;;;;;;5061154;28;46492;-64
2022/04/09 00:28:13;;;;;;;5.47;1.40;;;10.40;66.00;;;;;;5061820;28;47008;-62
2022/04/09 00:30:39;;;;;;;4.50;1.40;;;10.30;66.80;;;;;;5061746;28;46540;-62
2022/04/09 00:33:04;;;;;;;2.30;1.00;;;10.20;68.90;;;;;;5061891;28;45795;-63
2022/04/09 00:35:30;;;;;;;3.90;1.20;;;10.20;69.50;;;;;;5061056;28;46752;-64
2022/04/09 00:37:56;;;;;;;1.60;0.90;;;10.10;70.90;;;;;;5061576;28;46007;-62
2022/04/09 00:40:25;;;;;;;3.77;1.20;;;9.60;79.90;;;;;;5058990;28;46323;-64
2022/04/09 00:42:50;;;;;;;4.87;0.73;;;9.00;82.60;;;;;;5060868;28;45820;-63
2022/04/09 00:45:16;;;;;;;4.50;0.77;;;7.90;85.00;;;;;;5061997;28;45855;-63
2022/04/09 00:47:42;;;;;;;5.43;0.90;;;7.40;85.90;;;;;;5063822;28;46498;-63
2022/04/09 00:50:10;;;;;;;1.60;0.60;;;7.00;86.40;;;;;;5060619;28;46429;-63
2022/04/09 00:52:39;;;;;;;2.53;0.67;;;6.90;86.30;;;;;;5060000;28;46460;-63
2022/04/09 00:55:06;;;;;;;1.80;0.70;;;6.80;86.60;;;;;;5061053;28;46446;-64
2022/04/09 00:57:35;;;;;;;2.33;1.00;;;6.80;85.80;;;;;;5059608;28;46731;-62
2022/04/09 01:00:09;;;;;;;9.77;0.83;;;6.70;86.90;;;;;;5057442;28;46371;-62
2022/04/09 01:02:41;;;;;;;1.30;0.77;;;6.50;88.00;;;;;;5061387;28;46473;-63
2022/04/09 01:05:07;;;;;;;4.73;0.80;;;6.30;89.40;;;;;;5058336;28;46486;-67
2022/04/09 01:07:34;;;;;;;5.50;0.60;;;6.20;90.10;;;;;;5060478;28;46400;-63
2022/04/09 01:10:00;;;;;;;4.27;0.70;;;6.00;90.60;;;;;;5060644;28;46409;-64
2022/04/09 01:12:26;;;;;;;2.00;0.70;;;5.90;91.00;;;;;;5057794;28;46399;-64
2022/04/09 01:14:52;;;;;;;1.00;0.57;;;5.90;91.20;;;;;;5060219;28;46891;-63
2022/04/09 01:17:18;;;;;;;1.10;0.70;;;5.90;91.10;;;;;;5060287;28;46319;-62
2022/04/09 01:19:44;;;;;;;1.00;0.60;;;5.90;91.10;;;;;;5060527;28;46383;-61
2022/04/09 01:22:09;;;;;;;1.50;0.70;;;6.00;90.90;;;;;;5058065;28;46387;-65
2022/04/09 01:24:35;;;;;;;1.10;0.63;;;5.80;90.90;;;;;;5061012;28;46511;-61
2022/04/09 01:27:03;;;;;;;1.50;0.60;;;5.90;90.60;;;;;;5059677;28;47259;-63
2022/04/09 01:29:28;;;;;;;2.40;0.60;;;5.70;90.40;;;;;;5059972;28;45780;-62
2022/04/09 01:31:54;;;;;;;1.00;0.50;;;5.40;90.30;;;;;;5061024;28;46272;-63
2022/04/09 01:34:20;;;;;;;1.00;0.60;;;5.20;90.30;;;;;;5060950;28;46441;-62
2022/04/09 01:36:46;;;;;;;1.03;0.60;;;4.90;90.20;;;;;;5041344;28;48263;-62
2022/04/09 01:39:12;;;;;;;1.20;0.60;;;4.30;90.00;;;;;;5059583;28;46225;-62
2022/04/09 01:41:38;;;;;;;1.17;0.60;;;3.60;90.30;;;;;;5060203;28;45833;-63
2022/04/09 01:44:04;;;;;;;1.07;0.67;;;3.40;90.50;;;;;;5059947;28;46536;-63
2022/04/09 01:46:29;;;;;;;1.10;0.70;;;3.30;90.40;;;;;;5061401;28;47022;-63
2022/04/09 01:48:55;;;;;;;1.10;0.60;;;3.20;90.20;;;;;;5064126;28;46430;-64
2022/04/09 01:51:20;;;;;;;4.03;0.70;;;3.20;90.00;;;;;;5063955;28;46397;-63
2022/04/09 01:53:46;;;;;;;1.30;0.70;;;3.20;89.70;;;;;;5064119;28;46398;-65
2022/04/09 01:56:11;;;;;;;1.43;0.63;;;3.20;89.20;;;;;;5062773;28;47017;-65
2022/04/09 01:58:37;;;;;;;1.30;0.90;;;3.20;88.60;;;;;;5063637;28;46458;-61
2022/04/09 02:01:03;;;;;;;1.27;0.77;;;3.30;88.20;;;;;;5063899;28;46470;-63
2022/04/09 02:03:28;;;;;;;1.40;0.80;;;3.10;88.30;;;;;;5064084;28;46614;-63
2022/04/09 02:05:54;;;;;;;0.90;0.60;;;3.20;88.20;;;;;;5064034;28;46937;-65
2022/04/09 02:08:20;;;;;;;1.50;1.00;;;3.10;88.20;;;;;;5063867;28;46405;-63
2022/04/09 02:10:46;;;;;;;1.93;0.80;;;3.00;88.40;;;;;;5063372;28;46481;-61
2022/04/09 02:13:12;;;;;;;1.57;0.70;;;2.90;88.80;;;;;;5063595;28;46410;-63
2022/04/09 02:15:38;;;;;;;2.60;0.90;;;2.90;89.00;;;;;;5062799;28;47119;-62
2022/04/09 02:18:03;;;;;;;1.57;1.00;;;2.70;89.50;;;;;;5063113;28;46555;-63
2022/04/09 02:20:29;;;;;;;1.70;1.10;;;2.60;89.80;;;;;;5063685;28;46370;-63
2022/04/09 02:22:55;;;;;;;1.83;1.13;;;2.70;89.50;;;;;;5063788;28;46340;-65
2022/04/09 02:25:21;;;;;;;2.50;1.23;;;2.80;89.00;;;;;;5063547;28;46374;-63
2022/04/09 02:27:46;;;;;;;1.10;0.70;;;2.60;89.50;;;;;;5062484;28;45812;-65
2022/04/09 02:30:12;;;;;;;2.07;1.30;;;2.50;89.70;;;;;;5063199;28;46452;-62
2022/04/09 02:32:51;;;;;;;1.00;0.63;;;2.60;89.80;;;;;;5063379;28;46478;-64
2022/04/09 02:35:19;;;;;;;2.20;1.35;;;2.50;89.80;;;;;;5045040;28;47097;-63
2022/04/09 02:37:45;;;;;;;1.52;1.00;;;2.50;89.80;;;;;;5062623;28;46319;-65
2022/04/09 02:40:11;;;;;;;2.40;1.50;;;2.50;89.70;;;;;;5062892;28;46372;-61
2022/04/09 02:42:38;;;;;;;1.60;0.90;;;2.60;89.10;;;;;;5063420;28;45903;-66
2022/04/09 02:45:05;;;;;;;1.20;0.90;;;2.80;88.30;;;;;;5062099;28;46473;-63
2022/04/09 02:47:31;;;;;;;1.25;0.88;;;2.80;87.50;;;;;;5061910;28;46450;-64
2022/04/09 02:49:59;;;;;;;1.85;0.90;;;2.80;87.40;;;;;;5063221;28;46376;-62
2022/04/09 02:52:27;;;;;;;1.73;1.20;;;2.80;87.60;;;;;;5061764;28;46433;-64
2022/04/09 02:54:53;;;;;;;1.48;1.10;;;2.70;88.20;;;;;;5062097;28;47023;-63
2022/04/09 02:57:18;;;;;;;3.33;1.20;;;2.60;89.00;;;;;;5060537;28;46358;-65
2022/04/09 02:59:44;;;;;;;1.73;1.47;;;2.70;89.20;;;;;;5062590;28;46688;-63
2022/04/09 03:02:10;;;;;;;1.67;1.20;;;2.70;89.50;;;;;;5062461;28;46376;-64
2022/04/09 03:04:35;;;;;;;1.50;1.30;;;2.70;89.70;;;;;;5062533;28;47274;-64
2022/04/09 03:07:01;;;;;;;1.60;1.30;;;2.80;89.80;;;;;;5061809;28;46325;-62
2022/04/09 03:09:26;;;;;;;2.67;1.60;;;2.80;90.00;;;;;;5063362;28;45874;-65
2022/04/09 03:11:53;;;;;;;2.00;1.60;;;2.70;90.00;;;;;;5062461;28;46473;-63
2022/04/09 03:14:20;;;;;;;1.77;1.40;;;2.80;89.60;;;;;;5062453;28;46332;-66
2022/04/09 03:16:45;;;;;;;1.95;1.10;;;2.90;89.70;;;;;;5061325;28;46287;-63
2022/04/09 03:19:11;;;;;;;2.37;1.70;;;3.00;89.60;;;;;;5062790;28;46468;-64
2022/04/09 03:21:36;;;;;;;1.60;1.20;;;2.90;89.50;;;;;;5062717;28;46374;-64
2022/04/09 03:24:02;;;;;;;2.20;1.67;;;3.00;89.30;;;;;;5062499;28;46459;-65
2022/04/09 03:26:28;;;;;;;1.73;1.37;;;3.00;89.20;;;;;;5061677;28;46430;-65
2022/04/09 03:28:53;;;;;;;1.73;1.30;;;3.00;89.20;;;;;;5062012;28;46303;-66
2022/04/09 03:31:19;;;;;;;1.60;1.30;;;3.00;90.20;;;;;;5062568;28;46426;-63
2022/04/09 03:33:47;;;;;;;1.73;1.30;;;3.00;89.30;;;;;;5062110;28;47262;-63
2022/04/09 03:36:13;;;;;;;1.85;1.50;;;3.10;88.90;;;;;;5066966;28;46268;-64
2022/04/09 03:38:41;;;;;;;1.60;1.33;;;3.10;88.60;;;;;;5062417;28;46449;-64
2022/04/09 03:41:07;;;;;;;1.83;1.50;;;3.10;88.60;;;;;;5062672;28;46527;-65
2022/04/09 03:43:32;;;;;;;3.37;1.83;;;3.10;88.80;;;;;;5062200;28;46349;-66
2022/04/09 03:45:58;;;;;;;1.67;1.20;;;3.10;89.30;;;;;;5061902;28;46417;-65
2022/04/09 03:48:23;;;;;;;1.70;1.43;;;3.00;89.40;;;;;;5061244;28;46584;-64
2022/04/09 03:50:49;;;;;;;2.43;1.70;;;3.00;89.70;;;;;;5063273;28;46335;-66
2022/04/09 03:53:19;;;;;;;2.57;1.60;;;3.00;90.00;;;;;;5062578;28;46335;-63
2022/04/09 03:55:46;;;;;;;2.30;1.80;;;3.00;90.10;;;;;;5060146;28;46414;-65
2022/04/09 03:58:14;;;;;;;1.95;1.40;;;3.10;90.00;;;;;;5062132;28;46574;-64
2022/04/09 04:00:40;;;;;;;1.60;1.40;;;3.10;90.00;;;;;;5062279;28;46606;-66
2022/04/09 04:03:07;;;;;;;2.20;1.70;;;3.30;90.10;;;;;;5065562;28;46341;-62
2022/04/09 04:05:33;;;;;;;2.50;1.98;;;3.00;90.10;;;;;;5063504;28;46331;-62
2022/04/09 04:07:59;;;;;;;2.63;1.80;;;3.10;90.10;;;;;;5061762;28;46334;-65
2022/04/09 04:10:24;;;;;;;5.73;2.00;;;3.10;90.00;;;;;;5061898;28;46381;-64
2022/04/09 04:12:50;;;;;;;2.87;2.20;;;3.10;90.00;;;;;;5061369;28;46180;-63
2022/04/09 04:15:15;;;;;;;2.77;1.97;;;3.10;90.00;;;;;;5062385;28;46457;-64
2022/04/09 04:17:43;;;;;;;3.57;1.90;;;3.10;89.90;;;;;;5061363;28;46390;-64
2022/04/09 04:20:10;;;;;;;3.70;2.40;;;3.10;90.00;;;;;;5061968;28;46549;-63
2022/04/09 04:22:36;;;;;;;3.15;2.05;;;3.10;90.00;;;;;;5061680;28;47207;-63
2022/04/09 04:25:03;;;;;;;3.30;2.33;;;3.10;90.00;;;;;;5061281;28;46285;-63
2022/04/09 04:27:29;;;;;;;3.72;2.60;;;3.00;90.10;;;;;;5061831;28;46401;-63
2022/04/09 04:30:02;;;;;;;6.53;3.60;;;3.00;90.20;;;;;;5062229;28;46637;-63
2022/04/09 04:32:28;;;;;;;3.92;3.42;;;3.10;90.20;;;;;;5059447;28;45984;-64
2022/04/09 04:34:53;;;;;;;4.63;3.30;;;3.00;90.20;;;;;;5061153;28;46793;-63
2022/04/09 04:37:19;;;;;;;5.50;3.90;;;3.00;90.10;;;;;;5061480;28;46435;-64
2022/04/09 04:39:45;;;;;;;7.77;3.67;;;3.00;90.10;;;;;;5061849;28;46550;-64
2022/04/09 04:42:10;;;;;;;5.60;3.77;;;2.90;90.10;;;;;;5062550;28;46365;-64
2022/04/09 04:44:36;;;;;;;5.37;3.87;;;2.90;90.00;;;;;;5062945;28;46534;-64
2022/04/09 04:47:02;;;;;;;7.70;4.23;;;3.10;89.90;;;;;;5043534;28;46381;-64
2022/04/09 04:49:28;;;;;;;6.65;3.70;;;2.90;89.50;;;;;;5062140;28;46434;-64
2022/04/09 04:51:53;;;;;;;7.60;4.70;;;3.10;89.40;;;;;;5061765;28;46186;-64
2022/04/09 04:54:19;;;;;;;9.67;6.07;;;2.90;89.30;;;;;;5059780;28;46443;-67
2022/04/09 04:56:45;;;;;;;7.60;5.30;;;3.00;89.20;;;;;;5060566;28;46433;-63
2022/04/09 04:59:10;;;;;;;8.17;5.07;;;2.90;89.10;;;;;;5061730;28;46435;-63
2022/04/09 05:01:37;;;;;;;9.40;6.00;;;3.00;88.80;;;;;;5061307;28;46522;-63
2022/04/09 05:04:04;;;;;;;13.55;8.60;;;3.00;88.80;;;;;;5060765;28;46291;-64
2022/04/09 05:06:30;;;;;;;24.35;12.07;;;3.00;88.70;;;;;;5060355;28;46314;-63
2022/04/09 05:08:55;;;;;;;19.53;10.90;;;3.20;88.40;;;;;;5060998;28;46317;-66
2022/04/09 05:11:21;;;;;;;13.70;9.20;;;3.20;87.90;;;;;;5060269;28;47276;-61
2022/04/09 05:13:47;;;;;;;22.40;12.97;;;3.40;87.40;;;;;;5058833;28;46385;-61
2022/04/09 05:16:13;;;;;;;14.70;8.30;;;3.50;87.20;;;;;;5059278;28;46436;-62
2022/04/09 05:18:39;;;;;;;22.73;13.27;;;3.40;86.90;;;;;;5059481;28;46450;-64
2022/04/09 05:21:05;;;;;;;32.83;17.60;;;3.40;86.80;;;;;;5059620;28;46438;-64
2022/04/09 05:23:30;;;;;;;25.90;14.73;;;3.50;86.70;;;;;;5062844;28;46484;-63
2022/04/09 05:25:56;;;;;;;31.47;17.67;;;3.50;86.50;;;;;;5062972;28;45902;-61
2022/04/09 05:28:22;;;;;;;40.77;19.47;;;3.50;86.20;;;;;;5061664;28;46690;-64
2022/04/09 05:30:50;;;;;;;27.43;13.30;;;3.50;86.00;;;;;;5062366;28;46338;-66
2022/04/09 05:33:19;;;;;;;17.83;10.80;;;3.60;85.80;;;;;;5059865;28;46510;-64
2022/04/09 05:35:45;;;;;;;12.35;8.90;;;3.70;85.20;;;;;;5062919;28;46413;-64
2022/04/09 05:38:11;;;;;;;10.95;7.60;;;3.70;85.10;;;;;;5061155;28;46620;-64
2022/04/09 05:40:37;;;;;;;7.97;4.27;;;3.90;84.90;;;;;;5062535;28;46448;-63
2022/04/09 05:43:03;;;;;;;7.68;5.20;;;3.80;84.80;;;;;;5062026;28;46441;-64
2022/04/09 05:45:29;;;;;;;7.80;5.13;;;3.60;86.70;;;;;;5061437;28;46247;-64
2022/04/09 05:47:55;;;;;;;6.50;4.80;;;3.50;86.10;;;;;;5060077;28;46430;-63
2022/04/09 05:50:21;;;;;;;7.40;4.57;;;3.50;86.50;;;;;;5059801;28;46339;-64
2022/04/09 05:52:49;;;;;;;5.23;4.27;;;3.40;86.60;;;;;;5063213;28;46587;-63
2022/04/09 05:55:15;;;;;;;6.27;4.23;;;3.50;86.80;;;;;;5064053;28;46412;-63
2022/04/09 05:57:42;;;;;;;6.20;4.60;;;3.50;86.80;;;;;;5060762;28;46512;-65
2022/04/09 06:00:09;;;;;;;8.10;5.60;;;3.40;86.90;;;;;;5063807;28;47200;-65
2022/04/09 06:02:37;;;;;;;6.10;4.63;;;3.40;86.80;;;;;;5063857;28;46510;-61
2022/04/09 06:05:03;;;;;;;10.40;4.90;;;3.50;86.90;;;;;;5063845;28;46421;-63
2022/04/09 06:07:28;;;;;;;5.80;4.67;;;3.40;86.90;;;;;;5063097;28;45930;-65
2022/04/09 06:09:54;;;;;;;8.50;4.37;;;3.40;86.80;;;;;;5063705;28;46517;-63
2022/04/09 06:12:20;;;;;;;7.80;4.73;;;3.50;86.70;;;;;;5063938;28;46703;-63
2022/04/09 06:14:45;;;;;;;6.17;4.50;;;3.40;86.60;;;;;;5064014;28;46288;-63
2022/04/09 06:17:12;;;;;;;6.67;4.50;;;3.40;86.60;;;;;;5060275;28;45951;-64
2022/04/09 06:19:38;;;;;;;6.57;4.60;;;3.30;86.40;;;;;;5064228;28;47125;-64
2022/04/09 06:22:04;;;;;;;8.43;5.13;;;3.30;86.20;;;;;;5063155;28;46454;-64
2022/04/09 06:24:29;;;;;;;6.95;5.57;;;3.50;86.40;;;;;;5063898;28;46405;-66
2022/04/09 06:26:55;;;;;;;6.37;4.87;;;3.50;85.80;;;;;;5063173;28;46486;-66
2022/04/09 06:29:20;;;;;;;7.77;5.43;;;3.60;85.40;;;;;;5063696;28;46373;-65
2022/04/09 06:31:47;;;;;;;9.83;5.80;;;3.50;85.20;;;;;;5063267;28;46399;-64
2022/04/09 06:34:14;;;;;;;8.18;5.70;;;3.60;84.90;;;;;;5063627;28;46505;-64
2022/04/09 06:36:40;;;;;;;8.30;6.17;;;3.80;84.80;;;;;;5062347;28;46413;-65
2022/04/09 06:39:05;;;;;;;8.10;6.10;;;4.00;84.10;;;;;;5063399;28;47051;-67
2022/04/09 06:41:33;;;;;;;13.80;5.60;;;4.20;83.40;;;;;;5062343;28;46287;-63
2022/04/09 06:43:59;;;;;;;8.57;5.60;;;4.40;82.50;;;;;;5063418;28;46281;-65
2022/04/09 06:46:25;;;;;;;8.30;5.20;;;4.40;82.10;;;;;;5060750;28;46323;-65
2022/04/09 06:48:51;;;;;;;9.20;6.47;;;4.40;81.70;;;;;;5061995;28;47202;-66
2022/04/09 06:51:17;;;;;;;9.02;6.60;;;4.50;81.90;;;;;;5063149;28;46156;-63
2022/04/09 06:53:42;;;;;;;10.27;6.40;;;4.40;81.20;;;;;;5061494;28;46536;-65
2022/04/09 06:56:08;;;;;;;9.43;6.57;;;4.40;81.30;;;;;;5060245;28;46484;-64
2022/04/09 06:58:34;;;;;;;8.90;6.70;;;4.50;81.00;;;;;;5043629;28;47891;-63
2022/04/09 07:01:01;;;;;;;9.00;7.10;;;4.70;80.50;;;;;;5062766;28;46481;-63
2022/04/09 07:03:27;;;;;;;10.13;6.20;;;4.80;80.20;;;;;;5061892;28;46770;-63
2022/04/09 07:05:53;;;;;;;9.33;6.70;;;4.80;80.00;;;;;;5042812;28;45922;-64
2022/04/09 07:08:19;;;;;;;10.13;7.40;;;4.80;79.90;;;;;;5062822;28;47024;-63
2022/04/09 07:10:45;;;;;;;9.93;6.93;;;4.80;80.10;;;;;;5044956;28;46282;-63
2022/04/09 07:13:11;;;;;;;10.20;6.43;;;4.70;80.00;;;;;;5063156;28;46383;-63
2022/04/09 07:15:36;;;;;;;10.23;6.70;;;4.70;80.30;;;;;;5063235;28;46287;-64
2022/04/09 07:18:02;;;;;;;11.77;7.40;;;4.60;80.00;;;;;;5062433;28;47126;-65
2022/04/09 07:20:29;;;;;;;11.60;8.60;;;4.60;80.00;;;;;;5061688;28;46454;-64
2022/04/09 07:22:54;;;;;;;18.30;7.77;;;4.50;79.90;;;;;;5062421;28;46392;-66
2022/04/09 07:25:20;;;;;;;11.40;6.90;;;4.20;79.90;;;;;;5062720;28;46506;-66
2022/04/09 07:27:48;;;;;;;10.23;6.60;;;3.70;81.20;;;;;;5061106;28;46490;-63
2022/04/09 07:30:18;;;;;;;9.82;7.38;;;3.40;83.30;;;;;;5062156;28;46409;-64
2022/04/09 07:32:45;;;;;;;11.48;7.55;;;3.30;84.40;;;;;;5061418;28;46376;-65
2022/04/09 07:35:11;;;;;;;8.80;6.83;;;3.40;84.50;;;;;;5062679;28;46377;-63
2022/04/09 07:37:44;;;;;;;13.20;8.00;;;3.40;84.20;;;;;;5061502;28;47149;-64
2022/04/09 07:40:12;;;;;;;16.02;8.15;;;3.60;83.80;;;;;;5060343;28;46480;-64
2022/04/09 07:42:39;;;;;;;11.03;6.90;;;3.80;83.50;;;;;;5062639;28;46485;-63
2022/04/09 07:45:06;;;;;;;14.47;8.40;;;4.10;82.70;;;;;;5061993;28;46390;-64
2022/04/09 07:47:31;;;;;;;11.17;8.30;;;4.50;82.00;;;;;;5061308;28;46420;-64
2022/04/09 07:49:57;;;;;;;8.37;6.23;;;5.00;81.50;;;;;;5060871;28;46355;-64
2022/04/09 07:52:23;;;;;;;14.37;9.70;;;5.20;80.40;;;;;;5060966;28;46443;-64
2022/04/09 07:54:48;;;;;;;20.20;9.97;;;5.20;79.30;;;;;;5064336;28;46402;-64
2022/04/09 07:57:14;;;;;;;7.87;5.90;;;5.40;78.90;;;;;;5066013;28;46156;-63
2022/04/09 07:59:40;;;;;;;37.03;15.70;;;5.40;76.30;;;;;;5062054;28;46474;-64
2022/04/09 08:02:05;;;;;;;54.97;18.53;;;5.60;76.90;;;;;;5061659;28;45807;-63
2022/04/09 08:04:31;;;;;;;15.90;9.23;;;5.80;76.20;;;;;;5062041;28;46594;-65
2022/04/09 08:06:57;;;;;;;37.67;16.83;;;6.10;76.30;;;;;;5060830;28;47016;-64
2022/04/09 08:09:22;;;;;;;449.40;139.00;;;6.50;75.40;;;;;;5061784;28;46272;-64
2022/04/09 08:11:48;;;;;;;31.60;14.80;;;6.90;75.30;;;;;;5061838;28;46370;-66
2022/04/09 08:14:14;;;;;;;16.90;10.33;;;7.40;74.40;;;;;;5062380;28;46330;-64
2022/04/09 08:16:39;;;;;;;16.97;8.63;;;7.40;72.90;;;;;;5060805;28;46364;-65
2022/04/09 08:19:07;;;;;;;47.43;20.27;;;7.40;72.80;;;;;;5061920;28;46449;-64
2022/04/09 08:21:32;;;;;;;13.17;8.60;;;7.20;71.80;;;;;;5062053;28;46388;-66
2022/04/09 08:23:58;;;;;;;7.80;5.40;;;7.10;71.80;;;;;;5062455;28;46248;-64
2022/04/09 08:26:23;;;;;;;7.07;5.17;;;6.70;70.00;;;;;;5060777;28;47352;-64
2022/04/09 08:28:49;;;;;;;11.07;4.97;;;6.30;70.00;;;;;;5056635;28;46665;-66
2022/04/09 08:31:15;;;;;;;7.20;4.47;;;6.10;69.60;;;;;;5056022;28;45875;-63
2022/04/09 08:33:42;;;;;;;8.60;3.57;;;6.00;69.00;;;;;;5059906;28;46433;-62
2022/04/09 08:36:07;;;;;;;9.67;4.93;;;5.90;68.40;;;;;;5056874;28;46968;-69
2022/04/09 08:38:33;;;;;;;7.77;4.20;;;5.80;67.70;;;;;;5060609;28;46417;-64
2022/04/09 08:41:03;;;;;;;7.10;4.30;;;5.90;67.90;;;;;;5056945;28;46447;-63
2022/04/09 08:43:29;;;;;;;6.27;3.67;;;6.00;66.70;;;;;;5059139;28;46335;-63
2022/04/09 08:45:56;;;;;;;9.40;4.83;;;6.10;66.60;;;;;;5059237;28;47362;-64
2022/04/09 08:48:22;;;;;;;6.77;3.93;;;6.20;65.90;;;;;;5060662;28;46840;-65
2022/04/09 08:50:47;;;;;;;5.43;4.20;;;6.30;65.40;;;;;;5061094;28;46379;-63
2022/04/09 08:53:13;;;;;;;5.77;3.63;;;6.40;64.70;;;;;;5059902;28;46539;-62
2022/04/09 08:55:40;;;;;;;6.70;4.00;;;6.50;63.30;;;;;;5056685;28;46352;-64
2022/04/09 08:58:06;;;;;;;6.30;3.27;;;7.00;63.30;;;;;;5059261;28;46655;-61
2022/04/09 09:00:32;;;;;;;6.17;3.27;;;7.20;62.50;;;;;;5060476;28;46528;-66
2022/04/09 09:03:00;;;;;;;7.10;3.63;;;7.40;62.10;;;;;;5057983;28;46483;-63
2022/04/09 09:05:32;;;;;;;10.50;4.63;;;7.30;61.20;;;;;;5055665;28;46523;-64
2022/04/09 09:07:57;;;;;;;7.40;3.30;;;7.40;61.10;;;;;;5056158;28;46965;-63
2022/04/09 09:10:23;;;;;;;6.87;3.60;;;7.30;60.40;;;;;;5056706;28;46533;-64
2022/04/09 09:13:05;;;;;;;5.20;3.67;;;7.20;60.50;;;;;;5061218;28;46473;-63
2022/04/09 09:15:55;;;;;;;13.10;5.00;;;7.00;60.90;;;;;;5057759;28;46506;-63
2022/04/09 09:18:25;;;;;;;10.27;4.47;;;7.20;61.50;;;;;;5055835;28;46415;-62
2022/04/09 09:21:02;;;;;;;10.63;3.53;;;7.50;60.80;;;;;;5057793;28;46688;-62
2022/04/09 09:23:32;;;;;;;7.67;4.33;;;7.30;58.90;;;;;;5057348;28;46291;-62
2022/04/09 09:25:59;;;;;;;12.57;4.67;;;6.90;59.70;;;;;;5057697;28;47012;-62
2022/04/09 09:28:30;;;;;;;8.87;4.20;;;7.10;61.70;;;;;;5059233;28;47036;-64
2022/04/09 09:30:56;;;;;;;6.30;3.93;;;7.20;61.20;;;;;;5059088;28;46460;-63
2022/04/09 09:33:23;;;;;;;6.27;3.80;;;7.30;60.70;;;;;;5058867;28;46740;-63
2022/04/09 09:35:55;;;;;;;8.23;3.67;;;7.10;59.70;;;;;;5058772;28;47391;-63
2022/04/09 09:38:23;;;;;;;5.40;3.33;;;7.00;60.00;;;;;;5057870;28;46928;-62
2022/04/09 09:40:48;;;;;;;8.70;3.90;;;7.00;59.50;;;;;;5059474;28;46424;-64
2022/04/09 09:43:25;;;;;;;12.80;3.47;;;6.90;59.40;;;;;;5055389;28;45900;-64
2022/04/09 09:45:53;;;;;;;6.97;3.43;;;7.00;59.40;;;;;;5057278;28;46474;-64
2022/04/09 09:48:24;;;;;;;8.50;3.60;;;7.00;59.70;;;;;;5058759;28;46362;-63
2022/04/09 09:50:51;;;;;;;9.50;3.97;;;7.10;59.90;;;;;;5059422;28;46734;-63
2022/04/09 09:53:36;;;;;;;7.90;3.67;;;7.20;60.00;;;;;;5057199;28;46356;-63
2022/04/09 09:56:03;;;;;;;5.70;3.37;;;7.00;59.60;;;;;;5057275;28;46428;-64
2022/04/09 09:58:30;;;;;;;5.83;3.30;;;7.10;59.80;;;;;;5058164;28;46401;-64
2022/04/09 10:00:57;;;;;;;6.87;3.30;;;7.40;59.20;;;;;;5060083;28;46378;-65
2022/04/09 10:03:24;;;;;;;8.13;2.50;;;7.40;59.50;;;;;;5060775;28;46319;-65
2022/04/09 10:05:51;;;;;;;3.80;1.70;;;7.30;57.00;;;;;;5059903;28;47259;-63
2022/04/09 10:08:18;;;;;;;7.20;2.80;;;7.00;55.30;;;;;;5063030;28;46400;-64
2022/04/09 10:10:48;;;;;;;4.70;2.27;;;6.90;55.40;;;;;;5062913;28;46498;-63
2022/04/09 10:13:24;;;;;;;5.20;2.77;;;6.90;55.70;;;;;;5059601;28;46421;-63
2022/04/09 10:15:52;;;;;;;9.23;2.70;;;6.90;55.40;;;;;;5060513;28;46479;-62
2022/04/09 10:18:24;;;;;;;8.90;3.10;;;6.70;55.40;;;;;;5061436;28;46412;-63
2022/04/09 10:21:01;;;;;;;4.30;2.57;;;6.70;57.50;;;;;;5061909;28;46132;-64
2022/04/09 10:23:33;;;;;;;7.87;2.80;;;6.90;58.40;;;;;;5061550;28;46351;-64
2022/04/09 10:26:01;;;;;;;7.37;3.10;;;7.60;57.90;;;;;;5041067;28;47051;-64
2022/04/09 10:28:38;;;;;;;8.07;1.90;;;7.90;57.40;;;;;;5062716;28;46362;-64
2022/04/09 10:31:22;;;;;;;3.47;2.00;;;8.00;56.10;;;;;;5061374;28;46571;-62
2022/04/09 10:33:58;;;;;;;4.00;1.90;;;8.00;55.90;;;;;;5061435;28;46467;-64
2022/04/09 10:36:54;;;;;;;5.40;2.30;;;7.60;54.00;;;;;;5061919;28;46384;-63
2022/04/09 10:39:25;;;;;;;3.60;1.63;;;7.30;55.00;;;;;;5039073;28;46424;-64
2022/04/09 10:41:54;;;;;;;3.50;1.93;;;7.00;54.90;;;;;;5061289;28;46453;-64
2022/04/09 10:44:43;;;;;;;3.30;1.80;;;6.80;54.20;;;;;;5061610;28;46357;-63
2022/04/09 10:47:14;;;;;;;3.83;1.70;;;7.10;55.00;;;;;;5058757;28;47035;-64
2022/04/09 10:50:05;;;;;;;12.60;2.40;;;7.50;55.20;;;;;;5062102;28;46474;-62
2022/04/09 10:52:32;;;;;;;4.07;2.00;;;7.90;52.90;;;;;;5062028;28;46394;-63
2022/04/09 10:55:10;;;;;;;6.10;2.10;;;8.10;51.00;;;;;;5062016;28;46551;-64
2022/04/09 10:57:46;;;;;;;6.33;1.73;;;8.60;51.40;;;;;;5059663;28;46598;-63
2022/04/09 11:00:21;;;;;;;4.40;1.80;;;8.80;50.30;;;;;;5062024;28;46408;-63
2022/04/09 11:03:03;;;;;;;5.27;2.13;;;8.60;48.70;;;;;;5061203;28;45885;-63
2022/04/09 11:05:28;;;;;;;7.17;1.70;;;8.50;48.80;;;;;;5059644;28;46648;-63
2022/04/09 11:08:06;;;;;;;8.50;1.80;;;8.40;48.20;;;;;;5061688;28;46493;-63
2022/04/09 11:10:32;;;;;;;3.97;1.87;;;8.60;48.20;;;;;;5061207;28;46294;-63
2022/04/09 11:12:57;;;;;;;5.60;1.70;;;8.40;47.50;;;;;;5062770;28;46275;-63
2022/04/09 11:15:23;;;;;;;4.80;1.50;;;8.30;47.30;;;;;;5061076;28;46809;-63
2022/04/09 11:17:49;;;;;;;3.40;1.40;;;8.40;46.20;;;;;;5060137;28;46331;-63
2022/04/09 11:20:17;;;;;;;4.87;1.57;;;8.80;45.60;;;;;;5061410;28;46352;-63
2022/04/09 11:22:54;;;;;;;3.97;1.40;;;9.00;45.30;;;;;;5061922;28;45924;-63
2022/04/09 11:25:25;;;;;;;3.57;1.40;;;9.10;45.00;;;;;;5058825;28;46378;-62
2022/04/09 11:28:03;;;;;;;2.30;1.20;;;9.10;43.50;;;;;;5060561;28;46192;-62
2022/04/09 11:30:29;;;;;;;3.30;1.60;;;8.80;43.10;;;;;;5060339;28;45898;-63
2022/04/09 11:32:55;;;;;;;3.83;1.63;;;8.70;45.20;;;;;;5061568;28;46385;-63
2022/04/09 11:35:24;;;;;;;5.93;1.70;;;8.80;46.10;;;;;;5062154;28;46453;-65
2022/04/09 11:37:50;;;;;;;5.70;1.73;;;9.20;44.90;;;;;;5060024;28;46609;-63
2022/04/09 11:40:19;;;;;;;5.30;1.80;;;9.30;44.70;;;;;;5060491;28;46335;-65
2022/04/09 11:42:47;;;;;;;7.60;2.20;;;9.30;45.00;;;;;;5058829;28;46250;-63
2022/04/09 11:45:27;;;;;;;5.67;1.90;;;9.60;45.00;;;;;;5060719;28;47447;-64
2022/04/09 11:47:57;;;;;;;11.40;1.80;;;9.30;43.50;;;;;;5058194;28;47172;-64
2022/04/09 11:50:25;;;;;;;8.50;1.80;;;8.80;44.20;;;;;;5061565;28;46437;-63
2022/04/09 11:52:53;;;;;;;3.53;1.50;;;9.00;44.70;;;;;;5062000;28;46378;-63
2022/04/09 11:55:20;;;;;;;5.93;2.30;;;9.20;42.20;;;;;;5060824;28;45982;-63
2022/04/09 11:57:53;;;;;;;4.90;1.80;;;9.50;41.90;;;;;;5059887;28;46683;-63
2022/04/09 12:00:23;;;;;;;6.80;1.67;;;9.60;41.70;;;;;;5061514;28;46458;-63
2022/04/09 12:02:50;;;;;;;3.50;1.63;;;9.60;41.40;;;;;;5061983;28;46628;-63
2022/04/09 12:05:16;;;;;;;7.13;1.43;;;9.40;41.90;;;;;;5061581;28;46442;-66
2022/04/09 12:07:45;;;;;;;7.50;1.20;;;9.20;41.20;;;;;;5060992;28;46451;-65
2022/04/09 12:10:23;;;;;;;4.50;1.70;;;9.30;40.90;;;;;;5061684;28;46470;-64
2022/04/09 12:15:26;;;;;;;3.93;1.40;;;9.00;41.40;;;;;;5066446;28;47317;-65
2022/04/09 12:17:52;;;;;;;4.80;1.70;;;9.30;41.10;;;;;;5050714;28;47365;-63
2022/04/09 12:20:34;;;;;;;8.10;1.87;;;9.20;41.20;;;;;;5064774;28;46643;-65
2022/04/09 12:23:00;;;;;;;3.60;1.50;;;9.10;40.30;;;;;;5055769;28;46481;-64
2022/04/09 12:25:52;;;;;;;7.87;1.63;;;9.30;41.50;;;;;;5060732;28;45812;-64
2022/04/09 12:28:23;;;;;;;5.33;1.60;;;9.50;40.20;;;;;;5057635;28;48005;-66
2022/04/09 12:30:51;;;;;;;5.00;1.60;;;9.30;40.60;;;;;;5053330;28;46287;-65
2022/04/09 12:33:18;;;;;;;5.73;1.93;;;9.20;40.80;;;;;;5064928;28;46328;-65
2022/04/09 12:35:43;;;;;;;5.57;2.20;;;9.10;41.70;;;;;;5063873;28;46674;-65
2022/04/09 12:38:09;;;;;;;2.90;1.33;;;8.90;42.50;;;;;;5064328;28;46423;-65
2022/04/09 12:40:37;;;;;;;3.50;1.50;;;8.90;41.30;;;;;;5064178;28;46406;-65
2022/04/09 12:43:41;;;;;;;6.83;1.73;;;9.00;41.90;;;;;;5064412;28;46362;-65
2022/04/09 12:46:07;;;;;;;5.30;1.73;;;8.90;42.30;;;;;;5063315;28;46675;-65
2022/04/09 12:48:38;;;;;;;7.43;1.87;;;8.50;42.70;;;;;;5063547;28;47228;-64
2022/04/09 12:51:04;;;;;;;13.40;3.20;;;8.30;43.30;;;;;;5055420;28;46237;-64
2022/04/09 12:53:30;;;;;;;4.67;1.90;;;8.50;44.80;;;;;;5063872;28;46444;-64
2022/04/09 12:55:56;;;;;;;3.20;1.60;;;8.80;43.60;;;;;;5063565;28;46592;-64
2022/04/09 12:58:21;;;;;;;5.70;2.53;;;9.10;43.10;;;;;;5063912;28;46428;-65
2022/04/09 13:00:47;;;;;;;3.83;1.60;;;9.20;42.00;;;;;;5063638;28;46416;-66